createdAt,value
2022-10-31T00:01:26.513Z,98127.88
2022-10-31T00:03:54.733Z,98114.06
2022-10-31T00:06:23.285Z,98110.16
2022-10-31T00:09:01.812Z,98113.78
2022-10-31T00:11:29.645Z,98106.34
2022-10-31T00:13:58.533Z,98097.00
2022-10-31T00:16:27.160Z,98094.00
2022-10-31T00:19:00.383Z,98091.41
2022-10-31T00:21:29.749Z,98099.34
2022-10-31T00:24:03.190Z,98095.13
2022-10-31T00:26:34.604Z,98097.66
2022-10-31T00:29:04.610Z,98085.84
2022-10-31T00:31:33.075Z,98083.31
2022-10-31T00:34:04.396Z,98083.13
2022-10-31T00:36:31.997Z,98088.94
2022-10-31T00:39:00.143Z,98085.53
2022-10-31T00:41:27.640Z,98082.78
2022-10-31T00:43:55.067Z,98075.69
2022-10-31T00:46:22.872Z,98076.53
2022-10-31T00:48:51.998Z,98078.47
2022-10-31T00:51:19.596Z,98066.63
2022-10-31T00:53:47.148Z,98067.53
2022-10-31T00:56:14.753Z,98076.94
2022-10-31T00:58:43.582Z,98072.94
2022-10-31T01:01:11.156Z,98070.34
2022-10-31T01:03:39.828Z,98073.78
2022-10-31T01:06:13.847Z,98078.00
2022-10-31T01:08:41.863Z,98069.66
2022-10-31T01:11:24.453Z,98071.59
2022-10-31T01:13:54.718Z,98073.84
2022-10-31T01:16:24.663Z,98065.22
2022-10-31T01:18:53.248Z,98071.16
2022-10-31T01:21:26.524Z,98061.13
2022-10-31T01:23:55.464Z,98064.31
2022-10-31T01:26:29.042Z,98073.00
2022-10-31T01:29:01.932Z,98078.97
2022-10-31T01:31:32.560Z,98070.50
2022-10-31T01:34:00.732Z,98078.75
2022-10-31T01:36:31.808Z,98077.78
2022-10-31T01:39:02.976Z,98077.13
2022-10-31T01:41:35.098Z,98085.66
2022-10-31T01:44:25.259Z,98081.66
2022-10-31T01:46:55.608Z,98087.31
2022-10-31T01:49:30.135Z,98084.59
2022-10-31T01:52:23.282Z,98094.97
2022-10-31T01:54:59.991Z,98092.06
2022-10-31T01:57:28.665Z,98089.31
2022-10-31T02:00:00.604Z,98094.31
2022-10-31T02:02:31.362Z,98093.41
2022-10-31T02:05:02.911Z,98101.06
2022-10-31T02:07:55.968Z,98109.78
2022-10-31T02:10:28.817Z,98111.00
2022-10-31T02:12:59.737Z,98109.25
2022-10-31T02:15:27.866Z,98112.69
2022-10-31T02:17:55.403Z,98097.31
2022-10-31T02:20:25.654Z,98100.59
2022-10-31T02:23:20.614Z,98105.09
2022-10-31T02:26:16.507Z,98093.28
2022-10-31T02:29:13.119Z,98094.00
2022-10-31T02:31:46.960Z,98096.13
2022-10-31T02:34:23.779Z,98100.34
2022-10-31T02:37:33.804Z,98108.00
2022-10-31T02:40:19.896Z,98102.06
2022-10-31T02:43:43.863Z,98100.91
2022-10-31T02:46:29.787Z,98098.22
2022-10-31T02:49:02.934Z,98101.25
2022-10-31T02:51:30.698Z,98099.44
2022-10-31T02:53:58.107Z,98097.59
2022-10-31T02:56:25.682Z,98095.69
2022-10-31T02:59:05.321Z,98103.44
2022-10-31T03:01:50.756Z,98100.06
2022-10-31T03:04:35.922Z,98091.44
2022-10-31T03:07:21.806Z,98106.78
2022-10-31T03:10:10.735Z,98109.22
2022-10-31T03:12:55.697Z,98091.31
2022-10-31T03:15:37.093Z,98108.56
2022-10-31T03:18:08.325Z,98114.22
2022-10-31T03:20:47.319Z,98103.50
2022-10-31T03:23:20.947Z,98098.38
2022-10-31T03:25:54.309Z,98102.44
2022-10-31T03:28:45.458Z,98109.16
2022-10-31T03:31:17.981Z,98104.63
2022-10-31T03:33:47.065Z,98097.88
2022-10-31T03:36:16.847Z,98108.81
2022-10-31T03:38:47.986Z,98105.41
2022-10-31T03:41:24.958Z,98108.81
2022-10-31T03:44:15.308Z,98100.63
2022-10-31T03:46:44.758Z,98104.78
2022-10-31T03:49:13.268Z,98109.84
2022-10-31T03:51:47.755Z,98105.81
2022-10-31T03:54:26.673Z,98105.19
2022-10-31T03:57:02.874Z,98104.31
2022-10-31T03:59:36.491Z,98118.56
2022-10-31T04:02:09.123Z,98106.34
2022-10-31T04:04:38.277Z,98118.22
2022-10-31T04:07:09.358Z,98116.63
2022-10-31T04:09:41.995Z,98114.91
2022-10-31T04:12:12.214Z,98126.06
2022-10-31T04:14:59.000Z,98117.56
2022-10-31T04:17:31.137Z,98121.81
2022-10-31T04:20:01.462Z,98131.81
2022-10-31T04:22:31.239Z,98126.88
2022-10-31T04:24:58.828Z,98137.66
2022-10-31T04:27:27.671Z,98129.91
2022-10-31T04:29:55.304Z,98144.47
2022-10-31T04:32:22.834Z,98137.78
2022-10-31T04:34:53.878Z,98136.34
2022-10-31T04:37:21.407Z,98140.44
2022-10-31T04:39:49.353Z,98150.66
2022-10-31T04:42:37.304Z,98154.06
2022-10-31T04:45:06.921Z,98158.44
2022-10-31T04:47:36.446Z,98157.66
2022-10-31T04:50:06.582Z,98162.88
2022-10-31T04:52:41.285Z,98165.34
2022-10-31T04:55:11.300Z,98161.16
2022-10-31T04:58:05.414Z,98177.19
2022-10-31T05:00:34.397Z,98170.41
2022-10-31T05:03:09.639Z,98174.59
2022-10-31T05:05:41.368Z,98174.72
2022-10-31T05:08:08.920Z,98180.06
2022-10-31T05:10:37.422Z,98174.00
2022-10-31T05:13:06.380Z,98190.19
2022-10-31T05:16:11.882Z,98203.00
2022-10-31T05:18:45.600Z,98207.13
2022-10-31T05:21:28.379Z,98206.38
2022-10-31T05:24:00.787Z,98209.13
2022-10-31T05:26:29.299Z,98216.66
2022-10-31T05:28:57.403Z,98201.38
2022-10-31T05:31:25.219Z,98216.72
2022-10-31T05:33:54.575Z,98223.66
2022-10-31T05:36:40.391Z,98222.16
2022-10-31T05:39:16.943Z,98235.69
2022-10-31T05:41:48.514Z,98235.69
2022-10-31T05:44:26.781Z,98237.28
2022-10-31T05:47:21.356Z,98257.88
2022-10-31T05:49:57.979Z,98253.06
2022-10-31T05:52:43.793Z,98254.69
2022-10-31T05:55:34.717Z,98260.91
2022-10-31T05:58:19.018Z,98264.97
2022-10-31T06:00:53.971Z,98283.13
2022-10-31T06:03:21.992Z,98283.13
2022-10-31T06:05:59.501Z,98287.38
2022-10-31T06:08:37.449Z,98295.25
2022-10-31T06:11:14.259Z,98297.06
2022-10-31T06:14:02.652Z,98304.72
2022-10-31T06:16:40.925Z,98305.00
2022-10-31T06:19:28.736Z,98311.22
2022-10-31T06:21:56.392Z,98317.16
2022-10-31T06:24:23.822Z,98322.78
2022-10-31T06:26:53.876Z,98333.28
2022-10-31T06:29:22.292Z,98342.97
2022-10-31T06:32:04.111Z,98345.66
2022-10-31T06:34:33.924Z,98346.63
2022-10-31T06:37:01.482Z,98362.25
2022-10-31T06:39:30.222Z,98372.63
2022-10-31T06:41:57.984Z,98376.41
2022-10-31T06:44:30.051Z,98379.28
2022-10-31T06:47:00.814Z,98380.28
2022-10-31T06:49:54.437Z,98382.59
2022-10-31T06:52:24.526Z,98393.16
2022-10-31T06:54:52.735Z,98397.56
2022-10-31T06:57:21.432Z,98397.56
2022-10-31T06:59:48.847Z,98408.03
2022-10-31T07:02:33.144Z,98412.66
2022-10-31T07:05:01.985Z,98401.13
2022-10-31T07:07:30.600Z,98411.72
2022-10-31T07:09:58.203Z,98417.34
2022-10-31T07:12:43.779Z,98431.16
2022-10-31T07:15:11.510Z,98435.28
2022-10-31T07:17:38.911Z,98448.88
2022-10-31T07:20:09.764Z,98467.66
2022-10-31T07:22:38.634Z,98468.56
2022-10-31T07:25:10.312Z,98468.63
2022-10-31T07:28:01.488Z,98479.81
2022-10-31T07:30:29.719Z,98492.44
2022-10-31T07:32:57.997Z,98493.44
2022-10-31T07:35:37.156Z,98499.25
2022-10-31T07:38:10.562Z,98511.44
2022-10-31T07:40:38.334Z,98510.94
2022-10-31T07:43:10.193Z,98517.16
2022-10-31T07:45:59.404Z,98533.09
2022-10-31T07:48:47.759Z,98539.78
2022-10-31T07:51:33.977Z,98557.03
2022-10-31T07:54:31.569Z,98558.72
2022-10-31T07:56:59.101Z,98566.03
2022-10-31T07:59:33.811Z,98568.63
2022-10-31T08:02:01.699Z,98569.16
2022-10-31T08:04:49.802Z,98571.81
2022-10-31T08:07:38.419Z,98568.47
2022-10-31T08:10:08.448Z,98577.66
2022-10-31T08:12:38.742Z,98589.56
2022-10-31T08:15:09.793Z,98592.16
2022-10-31T08:17:38.762Z,98596.66
2022-10-31T08:20:07.176Z,98589.06
2022-10-31T08:22:43.827Z,98598.22
2022-10-31T08:25:12.484Z,98605.44
2022-10-31T08:27:40.366Z,98600.56
2022-10-31T08:30:13.105Z,98620.31
2022-10-31T08:32:47.588Z,98623.72
2022-10-31T08:35:38.452Z,98615.47
2022-10-31T08:38:38.475Z,98612.19
2022-10-31T08:41:09.638Z,98626.72
2022-10-31T08:43:38.055Z,98638.13
2022-10-31T08:46:06.274Z,98652.50
2022-10-31T08:48:34.004Z,98651.22
2022-10-31T08:51:03.264Z,98662.09
2022-10-31T08:53:31.367Z,98657.75
2022-10-31T08:56:23.433Z,98655.00
2022-10-31T08:58:52.275Z,98679.44
2022-10-31T09:01:25.607Z,98671.09
2022-10-31T09:03:53.232Z,98667.69
2022-10-31T09:06:21.317Z,98683.47
2022-10-31T09:08:49.507Z,98684.44
2022-10-31T09:11:17.741Z,98681.22
2022-10-31T09:14:03.677Z,98689.53
2022-10-31T09:16:40.175Z,98698.78
2022-10-31T09:19:14.350Z,98683.56
2022-10-31T09:21:46.321Z,98678.88
2022-10-31T09:24:16.229Z,98690.38
2022-10-31T09:26:43.942Z,98689.91
2022-10-31T09:29:18.211Z,98696.13
2022-10-31T09:31:49.222Z,98701.03
2022-10-31T09:34:26.404Z,98692.91
2022-10-31T09:37:14.020Z,98700.75
2022-10-31T09:39:41.643Z,98718.28
2022-10-31T09:42:39.375Z,98703.81
2022-10-31T09:45:44.818Z,98717.66
2022-10-31T09:48:53.582Z,98736.81
2022-10-31T09:51:36.018Z,98734.47
2022-10-31T09:54:23.617Z,98750.78
2022-10-31T09:56:52.066Z,98753.88
2022-10-31T09:59:34.649Z,98744.00
2022-10-31T10:02:07.165Z,98757.44
2022-10-31T10:04:46.167Z,98777.59
2022-10-31T10:07:47.462Z,98786.78
2022-10-31T10:10:54.754Z,98796.50
2022-10-31T10:13:52.593Z,98817.53
2022-10-31T10:16:25.689Z,98823.41
2022-10-31T10:19:24.230Z,98808.97
2022-10-31T10:22:19.349Z,98816.66
2022-10-31T10:24:52.770Z,98805.16
2022-10-31T10:27:38.326Z,98809.72
2022-10-31T10:30:19.516Z,98816.13
2022-10-31T10:32:57.703Z,98815.03
2022-10-31T10:35:35.345Z,98826.94
2022-10-31T10:38:17.196Z,98826.72
2022-10-31T10:40:45.571Z,98841.75
2022-10-31T10:43:28.444Z,98821.53
2022-10-31T10:46:23.322Z,98826.56
2022-10-31T10:48:53.430Z,98835.13
2022-10-31T10:52:20.117Z,98849.25
2022-10-31T10:55:09.276Z,98839.00
2022-10-31T10:57:51.230Z,98828.56
2022-10-31T11:00:47.959Z,98824.06
2022-10-31T11:03:17.132Z,98816.72
2022-10-31T11:05:56.173Z,98836.78
2022-10-31T11:08:28.685Z,98837.09
2022-10-31T11:11:02.039Z,98821.25
2022-10-31T11:13:31.155Z,98811.13
2022-10-31T11:16:07.546Z,98819.16
2022-10-31T11:18:44.195Z,98826.31
2022-10-31T11:21:28.398Z,98824.69
2022-10-31T11:24:13.562Z,98838.88
2022-10-31T11:26:42.976Z,98853.72
2022-10-31T11:29:16.721Z,98854.69
2022-10-31T11:31:46.989Z,98837.09
2022-10-31T11:34:26.892Z,98851.47
2022-10-31T11:36:58.283Z,98859.84
2022-10-31T11:39:25.883Z,98848.66
2022-10-31T11:41:55.367Z,98864.75
2022-10-31T11:44:27.414Z,98856.72
2022-10-31T11:47:04.374Z,98860.13
2022-10-31T11:49:38.545Z,98863.91
2022-10-31T11:52:16.325Z,98848.91
2022-10-31T11:54:51.409Z,98861.88
2022-10-31T11:57:28.401Z,98869.56
2022-10-31T11:59:58.921Z,98879.84
2022-10-31T12:02:27.107Z,98870.44
2022-10-31T12:05:22.529Z,98876.84
2022-10-31T12:07:50.822Z,98869.41
2022-10-31T12:10:22.822Z,98857.31
2022-10-31T12:13:14.379Z,98864.31
2022-10-31T12:15:55.001Z,98882.84
2022-10-31T12:18:46.929Z,98885.47
2022-10-31T12:21:28.357Z,98882.19
2022-10-31T12:24:23.036Z,98895.72
2022-10-31T12:27:19.717Z,98878.88
2022-10-31T12:30:13.190Z,98879.22
2022-10-31T12:32:49.548Z,98875.53
2022-10-31T12:35:29.000Z,98895.53
2022-10-31T12:37:59.495Z,98891.63
2022-10-31T12:40:36.209Z,98887.16
2022-10-31T12:43:36.158Z,98894.16
2022-10-31T12:46:09.427Z,98900.38
2022-10-31T12:49:01.566Z,98908.13
2022-10-31T12:52:06.474Z,98907.41
2022-10-31T12:55:31.061Z,98914.44
2022-10-31T12:58:05.099Z,98920.03
2022-10-31T13:00:37.254Z,98918.38
2022-10-31T13:03:23.184Z,98921.28
2022-10-31T13:05:59.231Z,98922.75
2022-10-31T13:08:47.225Z,98920.50
2022-10-31T13:11:26.447Z,98922.44
2022-10-31T13:14:06.712Z,98932.13
2022-10-31T13:16:44.824Z,98932.75
2022-10-31T13:19:30.673Z,98940.38
2022-10-31T13:22:09.890Z,98946.63
2022-10-31T13:25:04.747Z,98946.81
2022-10-31T13:27:57.964Z,98938.13
2022-10-31T13:30:29.865Z,98943.91
2022-10-31T13:33:05.817Z,98955.13
2022-10-31T13:35:52.573Z,98944.03
2022-10-31T13:38:25.844Z,98953.34
2022-10-31T13:41:00.766Z,98969.31
2022-10-31T13:44:00.688Z,98972.31
2022-10-31T13:46:34.018Z,98968.28
2022-10-31T13:49:04.625Z,98972.38
2022-10-31T13:51:36.177Z,98981.00
2022-10-31T13:54:23.601Z,98982.03
2022-10-31T13:56:53.584Z,98991.09
2022-10-31T13:59:26.061Z,98993.81
2022-10-31T14:01:58.807Z,98973.38
2022-10-31T14:04:45.677Z,98997.38
2022-10-31T14:07:16.311Z,98993.88
2022-10-31T14:09:52.868Z,98992.34
2022-10-31T14:12:42.493Z,98995.06
2022-10-31T14:15:18.592Z,98996.78
2022-10-31T14:17:51.881Z,98999.25
2022-10-31T14:20:19.340Z,99012.06
2022-10-31T14:22:46.922Z,99018.16
2022-10-31T14:25:34.569Z,99009.06
2022-10-31T14:28:18.608Z,99001.88
2022-10-31T14:30:57.772Z,99016.56
2022-10-31T14:33:30.845Z,99026.50
2022-10-31T14:36:20.090Z,99029.88
2022-10-31T14:38:59.481Z,99027.88
2022-10-31T14:41:34.338Z,99022.75
2022-10-31T14:44:13.825Z,99033.03
2022-10-31T14:47:35.078Z,99033.50
2022-10-31T14:50:20.668Z,99043.53
2022-10-31T14:52:52.649Z,99058.50
2022-10-31T14:55:21.954Z,99043.16
2022-10-31T14:58:08.567Z,99051.59
2022-10-31T15:00:37.294Z,99057.41
2022-10-31T15:03:17.097Z,99060.03
2022-10-31T15:05:55.301Z,99063.38
2022-10-31T15:08:32.208Z,99064.94
2022-10-31T15:11:03.440Z,99052.66
2022-10-31T15:13:30.995Z,99068.97
2022-10-31T15:15:58.673Z,99072.13
2022-10-31T15:18:28.606Z,99078.91
2022-10-31T15:20:57.845Z,99082.25
2022-10-31T15:23:30.253Z,99075.13
2022-10-31T15:26:06.086Z,99088.66
2022-10-31T15:28:33.732Z,99104.63
2022-10-31T15:31:03.253Z,99091.06
2022-10-31T15:33:38.204Z,99102.66
2022-10-31T15:36:07.251Z,99099.97
2022-10-31T15:38:35.008Z,99084.78
2022-10-31T15:41:21.101Z,99100.19
2022-10-31T15:43:49.287Z,99117.97
2022-10-31T15:46:16.793Z,99117.13
2022-10-31T15:48:49.390Z,99118.22
2022-10-31T15:51:17.126Z,99129.06
2022-10-31T15:53:52.937Z,99120.47
2022-10-31T15:56:27.434Z,99117.78
2022-10-31T15:58:56.557Z,99122.78
2022-10-31T16:01:29.769Z,99138.19
2022-10-31T16:04:22.522Z,99146.22
2022-10-31T16:07:24.065Z,99129.84
2022-10-31T16:09:55.971Z,99149.91
2022-10-31T16:12:25.689Z,99150.59
2022-10-31T16:14:55.456Z,99153.88
2022-10-31T16:17:25.654Z,99156.56
2022-10-31T16:20:04.177Z,99178.81
2022-10-31T16:22:35.769Z,99170.25
2022-10-31T16:25:15.315Z,99167.91
2022-10-31T16:27:54.277Z,99169.75
2022-10-31T16:30:42.827Z,99172.44
2022-10-31T16:33:31.947Z,99175.25
2022-10-31T16:36:15.780Z,99179.75
2022-10-31T16:38:48.024Z,99171.34
2022-10-31T16:41:15.549Z,99181.50
2022-10-31T16:43:43.045Z,99185.78
2022-10-31T16:46:19.841Z,99202.97
2022-10-31T16:48:47.457Z,99205.38
2022-10-31T16:51:14.961Z,99196.22
2022-10-31T16:53:46.570Z,99200.28
2022-10-31T16:56:22.778Z,99206.47
2022-10-31T16:58:50.737Z,99212.09
2022-10-31T17:01:18.368Z,99207.53
2022-10-31T17:03:46.012Z,99221.88
2022-10-31T17:06:14.795Z,99224.28
2022-10-31T17:08:42.505Z,99218.00
2022-10-31T17:11:17.582Z,99197.66
2022-10-31T17:13:45.307Z,99201.53
2022-10-31T17:16:15.340Z,99221.25
2022-10-31T17:18:43.942Z,99234.06
2022-10-31T17:21:18.605Z,99233.03
2022-10-31T17:23:46.191Z,99224.34
2022-10-31T17:26:13.678Z,99236.34
2022-10-31T17:28:41.629Z,99233.91
2022-10-31T17:31:24.655Z,99237.66
2022-10-31T17:34:00.105Z,99244.94
2022-10-31T17:36:32.212Z,99258.53
2022-10-31T17:39:00.140Z,99257.47
2022-10-31T17:41:27.873Z,99257.66
2022-10-31T17:43:59.760Z,99250.03
2022-10-31T17:46:28.675Z,99253.91
2022-10-31T17:48:58.202Z,99255.59
2022-10-31T17:51:25.735Z,99265.09
2022-10-31T17:53:53.407Z,99271.78
2022-10-31T17:56:21.165Z,99274.59
2022-10-31T17:58:48.918Z,99274.31
2022-10-31T18:01:18.179Z,99278.00
2022-10-31T18:03:45.901Z,99283.69
2022-10-31T18:06:16.793Z,99290.88
2022-10-31T18:08:47.397Z,99289.13
2022-10-31T18:11:20.825Z,99289.91
2022-10-31T18:13:48.497Z,99289.19
2022-10-31T18:16:19.297Z,99296.22
2022-10-31T18:18:52.267Z,99290.41
2022-10-31T18:21:20.615Z,99291.53
2022-10-31T18:23:48.357Z,99282.78
2022-10-31T18:26:16.011Z,99293.81
2022-10-31T18:28:44.443Z,99309.00
2022-10-31T18:31:12.104Z,99299.44
2022-10-31T18:33:39.610Z,99304.72
2022-10-31T18:36:07.771Z,99319.91
2022-10-31T18:38:39.546Z,99323.31
2022-10-31T18:41:08.786Z,99329.88
2022-10-31T18:43:36.472Z,99345.06
2022-10-31T18:46:06.404Z,99327.81
2022-10-31T18:48:34.093Z,99322.50
2022-10-31T18:51:09.224Z,99341.84
2022-10-31T18:54:13.979Z,99335.88
2022-10-31T18:56:56.847Z,99335.34
2022-10-31T19:13:09.986Z,99338.78
2022-10-31T19:17:26.619Z,99344.66
2022-10-31T19:23:40.827Z,99348.09
2022-10-31T19:27:04.265Z,99357.75
2022-10-31T19:30:15.254Z,99363.44
2022-10-31T19:32:42.865Z,99365.19
2022-10-31T19:35:37.922Z,99365.66
2022-10-31T19:38:08.487Z,99364.94
2022-10-31T19:40:37.155Z,99377.66
2022-10-31T19:43:04.901Z,99386.22
2022-10-31T19:45:32.449Z,99383.88
2022-10-31T19:48:00.301Z,99391.75
2022-10-31T19:50:29.103Z,99395.94
2022-10-31T19:52:57.114Z,99390.78
2022-10-31T19:55:24.609Z,99398.22
2022-10-31T19:58:07.361Z,99404.03
2022-10-31T20:00:35.136Z,99411.66
2022-10-31T20:03:02.911Z,99403.94
2022-10-31T20:18:30.531Z,99421.31
2022-10-31T20:30:26.474Z,99436.63
2022-10-31T20:33:39.488Z,99435.25
2022-10-31T20:36:19.714Z,99429.81
2022-10-31T20:39:03.327Z,99438.75
2022-10-31T20:41:42.813Z,99431.13
2022-10-31T20:45:24.946Z,99448.22
2022-10-31T21:05:13.289Z,99468.19
2022-10-31T21:12:05.474Z,99466.44
2022-10-31T21:18:37.718Z,99472.53
2022-10-31T21:21:09.498Z,99473.25
2022-10-31T21:23:37.465Z,99475.88
2022-10-31T21:26:09.669Z,99470.09
2022-10-31T21:28:37.232Z,99471.16
2022-10-31T21:31:13.201Z,99478.00
2022-10-31T21:33:41.332Z,99484.03
2022-10-31T21:36:09.637Z,99485.63
2022-10-31T21:38:37.602Z,99487.13
2022-10-31T21:41:11.009Z,99491.56
2022-10-31T21:43:40.524Z,99496.56
2022-10-31T21:46:09.503Z,99504.63
2022-10-31T21:48:44.528Z,99506.31
2022-10-31T21:51:17.647Z,99504.72
2022-10-31T21:54:04.251Z,99514.59
2022-10-31T21:56:33.400Z,99515.59
2022-10-31T21:59:01.742Z,99515.50
2022-10-31T22:01:29.774Z,99528.63
2022-10-31T22:03:58.465Z,99524.44
2022-10-31T22:06:27.475Z,99531.34
2022-10-31T22:08:55.198Z,99525.97
2022-10-31T22:11:22.997Z,99526.84
2022-10-31T22:13:50.769Z,99528.44
2022-10-31T22:16:20.841Z,99537.56
2022-10-31T22:18:53.126Z,99531.31
2022-10-31T22:21:26.261Z,99532.19
2022-10-31T22:24:03.300Z,99535.00
2022-10-31T22:26:33.459Z,99536.75
2022-10-31T22:29:04.108Z,99540.00
2022-10-31T22:31:33.397Z,99549.97
2022-10-31T22:34:01.166Z,99544.19
2022-10-31T22:36:30.312Z,99555.50
2022-10-31T22:38:58.579Z,99532.72
2022-10-31T22:41:31.506Z,99555.72
2022-10-31T22:43:59.610Z,99554.72
2022-10-31T22:46:29.842Z,99556.47
2022-10-31T22:48:59.984Z,99555.88
2022-10-31T22:51:33.220Z,99565.25
2022-10-31T22:54:01.310Z,99570.03
2022-10-31T22:56:33.822Z,99569.44
2022-10-31T22:59:02.415Z,99568.19
2022-10-31T23:01:32.845Z,99565.75
2022-10-31T23:04:01.366Z,99563.13
2022-10-31T23:06:30.706Z,99555.50
2022-10-31T23:09:00.556Z,99575.25
2022-10-31T23:11:33.751Z,99573.66
2022-10-31T23:14:09.544Z,99573.66
2022-10-31T23:16:38.539Z,99570.63
2022-10-31T23:19:08.156Z,99573.03
2022-10-31T23:21:55.120Z,99566.81
2022-10-31T23:24:27.490Z,99573.56
2022-10-31T23:27:12.164Z,99566.88
2022-10-31T23:29:49.413Z,99565.19
2022-10-31T23:32:18.798Z,99573.44
2022-10-31T23:34:48.163Z,99575.78
2022-10-31T23:37:17.427Z,99571.38
2022-10-31T23:39:45.382Z,99576.38
2022-10-31T23:42:13.997Z,99579.97
2022-10-31T23:44:42.014Z,99578.22
2022-10-31T23:47:09.731Z,99582.50
2022-10-31T23:49:37.310Z,99593.75
2022-10-31T23:52:05.724Z,99578.31
2022-10-31T23:54:33.503Z,99586.22
2022-10-31T23:57:02.116Z,99602.03
2022-10-31T23:59:30.433Z,99595.81
